Nearby METAR Reports

 

KAGC - Pittsburgh/Alleg, Pennsylvania, USA
Distance from station: N 14mi, 23km
Updated: Mon, Jul-23-2018 2:53am EDT
Mostly cloudy
Mostly cloudy
 Wind from E
Wind: E 6 mph , 9 km/h
Temperature: 66°F , 19°C
Dew Point: 64°F , 18°C
Humidity: 94%
Barometer: 29.85 inHg , 1010.8 hPa
Clouds: Mostly cloudy
Visibility: 10 miles , 16 km
Cloud details: Mostly cloudy 8000 ft
2018/07/23 06:53 KAGC 230653Z 10005KT 10SM BKN080 19/18 A2985 RMK AO2 SLP104 T01940183
KAFJ - Washington, Pennsylvania, USA
Distance from station: W 17mi, 28km
Updated: Mon, Jul-23-2018 2:56am EDT
Few Clouds
Few Clouds
 Wind from calm
Wind: Calm
Temperature: 64°F , 18°C
Dew Point: 63°F , 17°C
Humidity: 94%
Barometer: 29.87 inHg , 1011.5 hPa
Clouds: Few Clouds
Visibility: 10 miles , 16 km
Cloud details: Few Clouds 7000 ft
2018/07/23 06:56 KAFJ 230656Z AUTO 00000KT 10SM FEW070 18/17 A2987 RMK AO2 SLP108 T01830172
 
KLBE - Latrobe, Pennsylvania, USA
Distance from station: ENE 30mi, 48km
Updated: Mon, Jul-23-2018 3:15am EDT
Clear
Clear
 Wind from calm
Wind: Calm
Temperature: 72°F , 22°C
Dew Point: 66°F , 19°C
Humidity: 83%
Barometer: 29.86 inHg , 1011.2 hPa
Clouds: Clear
Visibility: 10 miles , 16 km
2018/07/23 07:15 KLBE 230715Z AUTO 00000KT 10SM CLR 22/19 A2986 RMK AO2
KPIT - Pittsburgh, Pennsylvania, USA
Distance from station: NW 30mi, 48km
Updated: Mon, Jul-23-2018 2:51am EDT
Partly cloudy
Partly cloudy
 Wind from ESE
Wind: ESE 3 mph , 6 km/h
Temperature: 66°F , 19°C
Dew Point: 66°F , 19°C
Humidity: 100%
Barometer: 29.85 inHg , 1010.8 hPa
Clouds: Partly cloudy
Visibility: 10 miles , 16 km
Cloud details: Partly cloudy 6000 ft
Partly cloudy 15000 ft
2018/07/23 06:51 KPIT 230651Z 11003KT 10SM SCT060 SCT150 19/19 A2985 RMK AO2 SLP107 T01890189
 
KMGW - Morgantown, West Virginia, USA
Distance from station: S 34mi, 55km
Updated: Mon, Jul-23-2018 2:53am EDT
Clear
Clear
 Wind from calm
Wind: Calm
Temperature: 70°F , 21°C
Dew Point: 66°F , 19°C
Humidity: 88%
Barometer: 29.86 inHg , 1011.2 hPa
Clouds: Clear
Visibility: 10 miles , 16 km
2018/07/23 06:53 KMGW 230653Z AUTO 00000KT 10SM CLR 21/19 A2986 RMK AO2 SLP100 T02110189 $
KHLG - Wheeling, West Virginia, USA
Distance from station: W 37mi, 60km
Updated: Mon, Jul-23-2018 2:53am EDT
Clear
Clear
 Wind from E
Wind: E 7 mph , 11 km/h
Temperature: 66°F , 19°C
Dew Point: 63°F , 17°C
Humidity: 88%
Barometer: 29.84 inHg , 1010.5 hPa
Clouds: Clear
Visibility: 10 miles , 16 km
2018/07/23 06:53 KHLG 230653Z AUTO 10006KT 10SM CLR 19/17 A2984 RMK AO2 SLP098 T01890172
 
KBTP - Butler Co., Pennsylvania, USA
Distance from station: N 43mi, 69km
Updated: Mon, Jul-23-2018 2:56am EDT
Clear
Clear
 Wind from E
Wind: E 6 mph , 9 km/h
Temperature: 66°F , 19°C
Dew Point: 64°F , 18°C
Humidity: 94%
Barometer: 29.87 inHg , 1011.5 hPa
Clouds: Clear
Visibility: 10 miles , 16 km
2018/07/23 06:56 KBTP 230656Z AUTO 10005KT 10SM CLR 19/18 A2987 RMK AO2 SLP112 P0001 T01940178
KBVI - Beaver Falls Arp, Pennsylvania, USA
Distance from station: NNW 49mi, 79km
Updated: Sun, Jul-22-2018 4:47pm EDT
NOT Current
Overcast
Overcast
 Wind from SE
Wind: SE 8 mph , 13 km/h
Temperature: 79°F , 26°C
Dew Point: 63°F , 17°C
Humidity: 58%
Barometer: 29.78 inHg , 1008.5 hPa
Clouds: Overcast
Visibility: 10 miles , 16 km
Cloud details: Overcast 3800 ft
2018/07/22 20:47 KBVI 222047Z AUTO 14007KT 10SM OVC038 26/17 A2978 RMK LTG DSNT SW. LAST.
 
K2G4 - Garrett Co, Maryland, USA
Distance from station: SE 51mi, 82km
Updated: Mon, Jul-23-2018 3:20am EDT
Overcast
Overcast
 Wind from ESE
Wind: ESE 8 mph , 13 km/h
Temperature: 63°F , 17°C
Dew Point: 63°F , 17°C
Humidity: 100%
Barometer: 29.93 inHg , 1013.5 hPa
Clouds: Overcast
Visibility: 2 1/2 miles , 4 km
Cloud details: Overcast 200 ft
2018/07/23 07:20 K2G4 230720Z AUTO 12007KT 2 1/2SM OVC002 17/17 A2993 RMK AO1
KIDI - Indiana/Stewart, Pennsylvania, USA
Distance from station: NE 56mi, 90km
Updated: Mon, Jul-23-2018 3:15am EDT
Few Clouds
Few Clouds
 Wind from ESE
Wind: ESE 6 mph , 9 km/h
Temperature: 70°F , 21°C
Dew Point: 66°F , 19°C
Humidity: 88%
Barometer: 29.93 inHg , 1013.5 hPa
Clouds: Few Clouds
Visibility: 10 miles , 16 km
Cloud details: Few Clouds 9000 ft
2018/07/23 07:15 KIDI 230715Z AUTO 11005KT 10SM FEW090 21/19 A2993 RMK A01
 
KJST - Johnstown, Pennsylvania, USA
Distance from station: ENE 60mi, 96km
Updated: Mon, Jul-23-2018 2:54am EDT
Overcast
Overcast
 Wind from ESE
Wind: ESE 3 mph , 6 km/h
Temperature: 66°F , 19°C
Dew Point: 64°F , 18°C
Humidity: 94%
Barometer: 29.93 inHg , 1013.5 hPa
Clouds: Overcast
Visibility: 10 miles , 16 km
Cloud details: Partly cloudy 900 ft
Mostly cloudy 2600 ft
Overcast 3500 ft
2018/07/23 06:54 KJST 230654Z AUTO 11003KT 10SM SCT009 BKN026 OVC035 19/18 A2993 RMK AO2 SLP123 T01940183
KCBE - Cumberland Reg, Maryland, USA
Distance from station: ESE 72mi, 116km
Updated: Mon, Jul-23-2018 3:16am EDT
Overcast
Overcast
 Wind from N
Wind: N 3 mph , 6 km/h
Temperature: 72°F , 22°C
Dew Point: 70°F , 21°C
Humidity: 94%
Barometer: 29.91 inHg , 1012.9 hPa
Clouds: Overcast
Visibility: 10 miles , 16 km
Cloud details: Mostly cloudy 2000 ft
Overcast 2600 ft
2018/07/23 07:16 KCBE 230716Z AUTO 36003KT 10SM BKN020 OVC026 22/21 A2991 RMK AO1
 
KILG - Wilmington, Delaware, USA
Distance from station: ESE 234mi, 377km
Updated: Mon, Jul-23-2018 3:20am EDT
Overcast
Overcast
 Wind from SE
Wind: SE 14 mph , 22 km/h, Gust: 26 mph , 43 km/h
Temperature: 79°F , 26°C
Dew Point: 75°F , 24°C
Humidity: 89%
Barometer: 29.93 inHg , 1013.5 hPa
Clouds: Overcast
Visibility: 10 miles , 16 km
Cloud details: Overcast 1400 ft
2018/07/23 07:20 KILG 230720Z AUTO 14012G23KT 10SM OVC014 26/24 A2993 RMK AO2 T02560239 $
KTUS - Tucson, Arizona, USA
Distance from station: WSW 1806mi, 3283km
Updated: Mon, Jul-23-2018 2:53am EDT
Clear
Clear
 Wind from WNW
Wind: WNW 8 mph , 13 km/h
Temperature: 90°F , 32°C
Dew Point: 52°F , 11°C
Humidity: 27%
Barometer: 30.02 inHg , 1016.6 hPa
Clouds: Clear
Visibility: 10 miles , 16 km
2018/07/23 06:53 KTUS 230653Z AUTO 29007KT 10SM CLR 32/11 A3002 RMK AO2 SLP106 T03170111 404000267